createdAt,value
2024-02-15T00:01:10.645Z,101302.59
2024-02-15T00:03:38.471Z,101304.28
2024-02-15T00:06:06.316Z,101301.72
2024-02-15T00:08:34.941Z,101296.53
2024-02-15T00:11:02.963Z,101299.94
2024-02-15T00:13:34.641Z,101294.78
2024-02-15T00:16:02.453Z,101298.25
2024-02-15T00:18:30.240Z,101303.38
2024-02-15T00:20:57.824Z,101309.41
2024-02-15T00:23:25.347Z,101299.06
2024-02-15T00:25:53.118Z,101305.16
2024-02-15T00:28:21.342Z,101298.25
2024-02-15T00:30:51.389Z,101296.56
2024-02-15T00:33:19.270Z,101300.06
2024-02-15T00:35:47.183Z,101298.34
2024-02-15T00:38:14.703Z,101296.66
2024-02-15T00:40:42.581Z,101298.37
2024-02-15T00:43:10.016Z,101297.53
2024-02-15T00:45:37.686Z,101297.53
2024-02-15T00:48:07.840Z,101297.53
2024-02-15T00:50:35.630Z,101295.78
2024-02-15T00:53:03.263Z,101283.66
2024-02-15T00:55:31.054Z,101281.00
2024-02-15T00:57:58.755Z,101281.03
2024-02-15T01:00:27.158Z,101284.50
2024-02-15T01:02:56.147Z,101275.91
2024-02-15T01:05:25.348Z,101274.16
2024-02-15T01:07:53.193Z,101281.91
2024-02-15T01:10:25.046Z,101272.34
2024-02-15T01:12:52.573Z,101276.75
2024-02-15T01:15:21.874Z,101270.69
2024-02-15T01:17:50.525Z,101274.16
2024-02-15T01:20:18.084Z,101272.41
2024-02-15T01:22:45.564Z,101271.56
2024-02-15T01:25:13.626Z,101274.16
2024-02-15T01:27:41.674Z,101276.75
2024-02-15T01:30:12.775Z,101267.22
2024-02-15T01:35:11.280Z,101269.88
2024-02-15T01:37:38.730Z,101269.88
2024-02-15T01:40:08.385Z,101262.12
2024-02-15T01:42:37.254Z,101258.69
2024-02-15T01:45:05.619Z,101256.06
2024-02-15T01:47:33.587Z,101254.34
2024-02-15T01:50:01.250Z,101263.87
2024-02-15T01:52:28.842Z,101265.62
2024-02-15T01:54:59.074Z,101255.22
2024-02-15T01:57:29.085Z,101258.69
2024-02-15T01:59:57.141Z,101262.16
2024-02-15T02:02:26.698Z,101262.16
2024-02-15T02:04:54.868Z,101254.34
2024-02-15T02:07:22.450Z,101254.34
2024-02-15T02:09:50.927Z,101254.34
2024-02-15T02:12:19.237Z,101255.22
2024-02-15T02:14:46.693Z,101260.44
2024-02-15T02:17:14.968Z,101259.56
2024-02-15T02:19:43.898Z,101256.09
2024-02-15T02:22:12.718Z,101250.03
2024-02-15T02:24:54.659Z,101250.91
2024-02-15T02:27:22.530Z,101252.66
2024-02-15T02:29:50.119Z,101256.97
2024-02-15T02:32:17.618Z,101256.06
2024-02-15T02:34:45.638Z,101256.97
2024-02-15T02:37:14.984Z,101263.00
2024-02-15T02:39:44.393Z,101260.41
2024-02-15T02:42:12.361Z,101259.53
2024-02-15T02:44:39.982Z,101264.69
2024-02-15T02:47:07.612Z,101268.16
2024-02-15T02:49:38.407Z,101267.28
2024-02-15T02:52:06.111Z,101259.50
2024-02-15T02:54:34.473Z,101264.69
2024-02-15T02:57:02.337Z,101262.09
2024-02-15T02:59:30.083Z,101269.84
2024-02-15T03:01:58.471Z,101272.47
2024-02-15T03:04:26.175Z,101268.16
2024-02-15T03:06:57.070Z,101272.47
2024-02-15T03:09:24.590Z,101268.16
2024-02-15T03:11:52.365Z,101271.59
2024-02-15T03:14:20.286Z,101268.09
2024-02-15T03:16:50.281Z,101275.91
2024-02-15T03:19:18.100Z,101278.44
2024-02-15T03:21:47.914Z,101270.66
2024-02-15T03:24:15.404Z,101267.19
2024-02-15T03:26:43.824Z,101269.78
2024-02-15T03:29:11.349Z,101281.91
2024-02-15T03:31:41.164Z,101280.16
2024-02-15T03:34:12.081Z,101274.16
2024-02-15T03:36:39.791Z,101262.94
2024-02-15T03:39:07.528Z,101272.44
2024-02-15T03:41:35.686Z,101276.69
2024-02-15T03:44:03.273Z,101273.25
2024-02-15T03:46:30.695Z,101276.69
2024-02-15T03:48:59.054Z,101275.00
2024-02-15T03:51:26.752Z,101281.91
2024-02-15T03:53:56.674Z,101268.94
2024-02-15T03:56:24.413Z,101268.06
2024-02-15T03:58:52.574Z,101267.25
2024-02-15T04:01:20.666Z,101263.81
2024-02-15T04:03:48.936Z,101264.66
2024-02-15T04:06:16.633Z,101264.59
2024-02-15T04:08:44.152Z,101257.78
2024-02-15T04:11:11.904Z,101262.12
2024-02-15T04:13:39.423Z,101257.81
2024-02-15T04:16:07.039Z,101262.12
2024-02-15T04:18:34.910Z,101257.81
2024-02-15T04:21:03.475Z,101252.62
2024-02-15T04:23:31.087Z,101263.00
2024-02-15T04:26:04.510Z,101250.91
2024-02-15T04:28:32.045Z,101257.81
2024-02-15T04:31:00.035Z,101260.44
2024-02-15T04:33:27.600Z,101256.97
2024-02-15T04:35:55.105Z,101249.19
2024-02-15T04:38:22.948Z,101255.25
2024-02-15T04:40:50.480Z,101257.81
2024-02-15T04:43:17.898Z,101257.81
2024-02-15T04:45:46.990Z,101256.09
2024-02-15T04:48:15.411Z,101260.41
2024-02-15T04:50:44.301Z,101256.97
2024-02-15T04:53:12.461Z,101261.31
2024-02-15T04:55:39.939Z,101262.16
2024-02-15T04:58:07.477Z,101255.25
2024-02-15T05:00:35.299Z,101253.53
2024-02-15T05:03:03.510Z,101254.37
2024-02-15T05:05:31.138Z,101268.22
2024-02-15T05:07:58.868Z,101264.75
2024-02-15T05:10:26.551Z,101259.56
2024-02-15T05:12:55.006Z,101275.13
2024-02-15T05:15:26.050Z,101281.19
2024-02-15T05:17:54.947Z,101280.28
2024-02-15T05:20:22.874Z,101282.03
2024-02-15T05:22:51.452Z,101277.72
2024-02-15T05:25:25.542Z,101277.72
2024-02-15T05:27:56.683Z,101269.94
2024-02-15T05:30:26.389Z,101274.25
2024-02-15T05:32:55.475Z,101278.59
2024-02-15T05:35:23.885Z,101281.19
2024-02-15T05:37:54.044Z,101281.19
2024-02-15T05:40:22.079Z,101287.22
2024-02-15T05:42:50.909Z,101292.41
2024-02-15T05:45:25.777Z,101294.13
2024-02-15T05:47:54.432Z,101304.50
2024-02-15T05:50:22.745Z,101306.25
2024-02-15T05:52:50.351Z,101309.72
2024-02-15T05:55:18.617Z,101312.28
2024-02-15T05:57:46.398Z,101308.00
2024-02-15T06:00:21.842Z,101314.00
2024-02-15T06:02:52.206Z,101311.31
2024-02-15T06:05:20.947Z,101318.94
2024-02-15T06:07:49.068Z,101323.09
2024-02-15T06:10:21.604Z,101322.97
2024-02-15T06:12:49.136Z,101328.00
2024-02-15T06:15:17.943Z,101318.19
2024-02-15T06:17:46.250Z,101315.44
2024-02-15T06:20:15.322Z,101320.72
2024-02-15T06:22:43.582Z,101317.97
2024-02-15T06:25:22.058Z,101323.97
2024-02-15T06:28:02.905Z,101326.53
2024-02-15T06:30:48.913Z,101317.94
2024-02-15T06:33:49.110Z,101319.72
2024-02-15T06:36:35.697Z,101314.56
2024-02-15T06:39:22.078Z,101328.50
2024-02-15T06:41:49.734Z,101325.91
2024-02-15T06:44:20.705Z,101322.41
2024-02-15T06:46:48.410Z,101331.97
2024-02-15T06:49:18.426Z,101329.31
2024-02-15T06:51:50.487Z,101329.19
2024-02-15T06:54:20.926Z,101336.00
2024-02-15T06:56:48.788Z,101343.78
2024-02-15T06:59:17.758Z,101337.56
2024-02-15T07:01:45.435Z,101344.84
2024-02-15T07:04:13.384Z,101355.28
2024-02-15T07:06:41.029Z,101349.00
2024-02-15T07:09:08.665Z,101343.78
2024-02-15T07:11:36.781Z,101355.00
2024-02-15T07:14:05.835Z,101352.34
2024-02-15T07:16:33.452Z,101355.75
2024-02-15T07:19:04.783Z,101358.56
2024-02-15T07:21:33.096Z,101360.47
2024-02-15T07:24:01.636Z,101343.31
2024-02-15T07:26:29.281Z,101351.81
2024-02-15T07:28:59.017Z,101349.94
2024-02-15T07:31:32.795Z,101351.66
2024-02-15T07:34:04.972Z,101347.19
2024-02-15T07:36:33.316Z,101349.94
2024-02-15T07:39:02.873Z,101350.66
2024-02-15T07:41:32.182Z,101349.66
2024-02-15T07:44:01.036Z,101342.94
2024-02-15T07:46:28.691Z,101336.59
2024-02-15T07:48:56.399Z,101342.37
2024-02-15T07:51:26.701Z,101336.44
2024-02-15T07:53:54.351Z,101338.03
2024-02-15T07:56:23.911Z,101330.03
2024-02-15T07:58:54.132Z,101337.16
2024-02-15T08:01:22.810Z,101333.19
2024-02-15T08:03:55.193Z,101332.47
2024-02-15T08:06:30.432Z,101337.53
2024-02-15T08:09:02.624Z,101327.50
2024-02-15T08:11:30.357Z,101336.06
2024-02-15T08:14:00.479Z,101326.25
2024-02-15T08:16:31.116Z,101326.47
2024-02-15T08:19:01.557Z,101334.84
2024-02-15T08:21:31.089Z,101334.69
2024-02-15T08:24:02.288Z,101334.69
2024-02-15T08:26:31.065Z,101343.66
2024-02-15T08:28:58.911Z,101345.75
2024-02-15T08:31:34.929Z,101343.81
2024-02-15T08:34:11.310Z,101349.91
2024-02-15T08:36:41.004Z,101347.12
2024-02-15T08:39:13.008Z,101352.09
2024-02-15T08:41:41.256Z,101358.91
2024-02-15T08:44:12.955Z,101358.78
2024-02-15T08:46:40.752Z,101354.34
2024-02-15T08:49:08.316Z,101356.50
2024-02-15T08:51:36.892Z,101352.84
2024-02-15T08:54:04.538Z,101363.81
2024-02-15T08:56:34.763Z,101362.84
2024-02-15T08:59:04.675Z,101363.38
2024-02-15T09:01:32.586Z,101365.69
2024-02-15T09:04:00.294Z,101358.38
2024-02-15T09:06:28.388Z,101363.22
2024-02-15T09:08:56.097Z,101356.88
2024-02-15T09:11:24.362Z,101359.03
2024-02-15T09:13:52.740Z,101364.59
2024-02-15T09:16:22.980Z,101358.69
2024-02-15T09:18:53.287Z,101363.03
2024-02-15T09:21:23.810Z,101366.22
2024-02-15T09:23:53.498Z,101357.34
2024-02-15T09:26:23.610Z,101360.50
2024-02-15T09:28:55.811Z,101358.72
2024-02-15T09:31:26.141Z,101363.59
2024-02-15T09:33:53.697Z,101360.69
2024-02-15T09:36:21.621Z,101357.00
2024-02-15T09:38:49.515Z,101364.56
2024-02-15T09:41:17.104Z,101368.94
2024-02-15T09:43:44.801Z,101360.97
2024-02-15T09:46:13.976Z,101365.53
2024-02-15T09:48:42.222Z,101362.56
2024-02-15T09:51:13.751Z,101364.41
2024-02-15T09:53:41.774Z,101360.47
2024-02-15T09:56:09.691Z,101360.22
2024-02-15T09:58:37.351Z,101358.38
2024-02-15T10:01:11.266Z,101362.00
2024-02-15T10:03:42.419Z,101361.34
2024-02-15T10:06:10.380Z,101361.19
2024-02-15T10:08:39.075Z,101355.19
2024-02-15T10:11:10.407Z,101362.28
2024-02-15T10:13:38.342Z,101356.91
2024-02-15T10:16:20.045Z,101356.50
2024-02-15T10:18:50.486Z,101350.19
2024-02-15T10:21:34.723Z,101352.78
2024-02-15T10:24:07.188Z,101342.84
2024-02-15T10:26:36.317Z,101336.00
2024-02-15T10:29:09.940Z,101346.69
2024-02-15T10:31:42.883Z,101344.06
2024-02-15T10:34:15.418Z,101335.94
2024-02-15T10:36:42.966Z,101332.22
2024-02-15T10:39:24.901Z,101336.56
2024-02-15T10:41:54.866Z,101337.84
2024-02-15T10:44:27.650Z,101338.34
2024-02-15T10:46:55.195Z,101337.84
2024-02-15T10:49:24.090Z,101336.97
2024-02-15T10:52:07.440Z,101335.47
2024-02-15T10:54:49.961Z,101331.84
2024-02-15T10:57:23.449Z,101324.56
2024-02-15T10:59:59.102Z,101330.53
2024-02-15T11:02:38.842Z,101326.00
2024-02-15T11:05:11.879Z,101324.69
2024-02-15T11:07:40.692Z,101324.19
2024-02-15T11:10:11.797Z,101316.00
2024-02-15T11:12:48.553Z,101316.72
2024-02-15T11:15:36.740Z,101325.59
2024-02-15T11:18:06.787Z,101317.53
2024-02-15T11:20:37.622Z,101313.97
2024-02-15T11:23:06.039Z,101309.62
2024-02-15T11:25:40.977Z,101304.63
2024-02-15T11:28:24.541Z,101311.28
2024-02-15T11:30:52.392Z,101305.78
2024-02-15T11:33:33.126Z,101298.59
2024-02-15T11:36:12.577Z,101294.97
2024-02-15T11:38:46.992Z,101287.38
2024-02-15T11:41:19.392Z,101285.41
2024-02-15T11:43:59.324Z,101289.00
2024-02-15T11:46:31.860Z,101291.28
2024-02-15T11:49:04.829Z,101289.91
2024-02-15T11:51:47.727Z,101283.69
2024-02-15T11:54:21.928Z,101286.72
2024-02-15T11:57:07.753Z,101282.97
2024-02-15T12:00:15.358Z,101285.31
2024-02-15T12:03:04.112Z,101284.84
2024-02-15T12:05:50.592Z,101279.53
2024-02-15T12:08:37.058Z,101283.06
2024-02-15T12:11:23.095Z,101277.09
2024-02-15T12:14:10.675Z,101272.59
2024-02-15T12:16:56.689Z,101268.69
2024-02-15T12:19:25.019Z,101266.34
2024-02-15T12:21:53.358Z,101259.34
2024-02-15T12:24:22.884Z,101270.09
2024-02-15T12:26:53.147Z,101261.50
2024-02-15T12:29:25.218Z,101262.97
2024-02-15T12:31:54.142Z,101262.22
2024-02-15T12:34:22.195Z,101262.97
2024-02-15T12:36:53.539Z,101262.59
2024-02-15T12:39:29.295Z,101258.03
2024-02-15T12:41:57.118Z,101259.09
2024-02-15T12:44:28.272Z,101247.72
2024-02-15T12:47:01.193Z,101242.47
2024-02-15T12:49:34.064Z,101251.09
2024-02-15T12:53:08.347Z,101243.50
2024-02-15T12:55:39.366Z,101239.16
2024-02-15T12:58:17.499Z,101232.63
2024-02-15T13:00:45.734Z,101229.66
2024-02-15T13:03:17.149Z,101227.28
2024-02-15T13:05:49.301Z,101226.97
2024-02-15T13:08:19.257Z,101229.69
2024-02-15T13:10:47.863Z,101228.88
2024-02-15T13:13:16.282Z,101230.59
2024-02-15T13:15:45.128Z,101223.25
2024-02-15T13:18:16.309Z,101225.19
2024-02-15T13:20:44.234Z,101221.47
2024-02-15T13:23:24.302Z,101226.63
2024-02-15T13:25:57.770Z,101221.97
2024-02-15T13:28:26.001Z,101214.03
2024-02-15T13:30:57.220Z,101222.84
2024-02-15T13:33:26.727Z,101216.34
2024-02-15T13:35:57.051Z,101215.16
2024-02-15T13:38:32.437Z,101220.16
2024-02-15T13:41:04.188Z,101216.75
2024-02-15T13:43:33.607Z,101221.03
2024-02-15T13:46:01.486Z,101222.72
2024-02-15T13:48:31.297Z,101216.53
2024-02-15T13:50:59.310Z,101221.22
2024-02-15T13:53:27.148Z,101220.19
2024-02-15T13:55:54.766Z,101208.25
2024-02-15T13:58:22.733Z,101214.28
2024-02-15T14:00:50.855Z,101214.81
2024-02-15T14:03:19.930Z,101215.66
2024-02-15T14:05:49.162Z,101219.28
2024-02-15T14:08:16.896Z,101215.72
2024-02-15T14:10:44.829Z,101205.53
2024-02-15T14:13:15.775Z,101215.78
2024-02-15T14:15:45.879Z,101211.66
2024-02-15T14:18:19.831Z,101205.09
2024-02-15T14:20:50.665Z,101200.50
2024-02-15T14:23:28.595Z,101202.44
2024-02-15T14:26:02.044Z,101198.59
2024-02-15T14:28:37.455Z,101204.06
2024-02-15T14:31:24.990Z,101192.97
2024-02-15T14:33:52.956Z,101193.94
2024-02-15T14:36:30.475Z,101191.94
2024-02-15T14:38:58.346Z,101184.41
2024-02-15T14:41:32.808Z,101195.63
2024-02-15T14:44:01.709Z,101189.78
2024-02-15T14:46:49.216Z,101183.56
2024-02-15T14:49:19.079Z,101182.37
2024-02-15T14:51:47.095Z,101182.37
2024-02-15T14:56:50.796Z,101189.78
2024-02-15T14:59:18.406Z,101182.94
2024-02-15T15:01:45.989Z,101180.00
2024-02-15T15:04:13.915Z,101183.09
2024-02-15T15:07:04.593Z,101180.50
2024-02-15T15:09:50.789Z,101181.00
2024-02-15T15:12:41.192Z,101187.72
2024-02-15T15:15:09.589Z,101188.53
2024-02-15T15:17:37.744Z,101200.06
2024-02-15T15:20:09.997Z,101190.69
2024-02-15T15:22:38.046Z,101192.00
2024-02-15T15:25:06.316Z,101193.00
2024-02-15T15:27:34.948Z,101193.44
2024-02-15T15:30:02.886Z,101192.06
2024-02-15T15:32:31.774Z,101193.72
2024-02-15T15:34:59.524Z,101196.22
2024-02-15T15:37:27.457Z,101195.22
2024-02-15T15:39:56.666Z,101202.56
2024-02-15T15:42:24.130Z,101190.75
2024-02-15T15:44:51.991Z,101197.13
2024-02-15T15:47:19.592Z,101195.81
2024-02-15T15:49:49.247Z,101202.13
2024-02-15T15:52:17.083Z,101210.56
2024-02-15T15:54:44.832Z,101200.09
2024-02-15T15:57:12.478Z,101198.44
2024-02-15T15:59:40.812Z,101198.00
2024-02-15T16:02:08.428Z,101197.88
2024-02-15T16:04:36.222Z,101206.25
2024-02-15T16:07:04.019Z,101202.38
2024-02-15T16:09:34.966Z,101208.41
2024-02-15T16:12:02.888Z,101208.41
2024-02-15T16:14:32.870Z,101208.50
2024-02-15T16:17:01.130Z,101214.59
2024-02-15T16:19:29.765Z,101207.75
2024-02-15T16:21:57.278Z,101213.97
2024-02-15T16:24:27.158Z,101223.84
2024-02-15T16:26:55.383Z,101210.41
2024-02-15T16:29:25.549Z,101221.03
2024-02-15T16:31:55.270Z,101222.25
2024-02-15T16:34:25.391Z,101221.72
2024-02-15T16:36:52.896Z,101228.12
2024-02-15T16:39:23.649Z,101227.66
2024-02-15T16:41:56.128Z,101231.47
2024-02-15T16:44:24.183Z,101235.94
2024-02-15T16:46:52.500Z,101234.38
2024-02-15T16:49:20.873Z,101232.75
2024-02-15T16:51:48.438Z,101237.13
2024-02-15T16:54:16.246Z,101244.78
2024-02-15T16:56:44.237Z,101245.62
2024-02-15T16:59:11.910Z,101244.81
2024-02-15T17:01:39.859Z,101249.97
2024-02-15T17:04:09.212Z,101246.56
2024-02-15T17:06:37.042Z,101244.81
2024-02-15T17:09:05.047Z,101242.34
2024-02-15T17:11:32.699Z,101245.91
2024-02-15T17:14:02.229Z,101249.63
2024-02-15T17:16:30.161Z,101245.56
2024-02-15T17:18:58.010Z,101246.78
2024-02-15T17:21:25.756Z,101246.03
2024-02-15T17:23:56.950Z,101251.81
2024-02-15T17:26:27.242Z,101258.25
2024-02-15T17:28:55.011Z,101250.37
2024-02-15T17:31:23.255Z,101259.25
2024-02-15T17:33:53.857Z,101257.72
2024-02-15T17:36:21.780Z,101262.16
2024-02-15T17:38:51.774Z,101265.78
2024-02-15T17:41:19.378Z,101260.87
2024-02-15T17:43:47.108Z,101254.88
2024-02-15T17:46:14.646Z,101256.44
2024-02-15T17:48:42.715Z,101254.66
2024-02-15T17:51:12.984Z,101256.63
2024-02-15T17:53:45.002Z,101264.25
2024-02-15T17:56:15.443Z,101263.31
2024-02-15T17:58:43.405Z,101265.22
2024-02-15T18:01:12.064Z,101265.72
2024-02-15T18:03:40.173Z,101264.78
2024-02-15T18:06:13.152Z,101269.25
2024-02-15T18:08:41.678Z,101258.19
2024-02-15T18:11:10.134Z,101265.84
2024-02-15T18:13:43.029Z,101268.41
2024-02-15T18:16:12.752Z,101272.88
2024-02-15T18:18:43.501Z,101271.09
2024-02-15T18:21:12.057Z,101278.13
2024-02-15T18:23:44.543Z,101268.69
2024-02-15T18:26:13.797Z,101265.34
2024-02-15T18:28:41.792Z,101267.37
2024-02-15T18:31:14.742Z,101271.16
2024-02-15T18:33:45.363Z,101262.91
2024-02-15T18:36:15.464Z,101264.78
2024-02-15T18:38:48.009Z,101262.22
2024-02-15T18:41:15.566Z,101263.44
2024-02-15T18:43:48.612Z,101263.06
2024-02-15T18:46:16.916Z,101261.72
2024-02-15T18:48:45.174Z,101261.97
2024-02-15T18:51:18.297Z,101264.72
2024-02-15T18:53:46.357Z,101256.94
2024-02-15T18:56:18.203Z,101257.28
2024-02-15T18:58:46.538Z,101267.81
2024-02-15T19:01:14.489Z,101266.22
2024-02-15T19:03:42.747Z,101262.09
2024-02-15T19:06:10.752Z,101263.16
2024-02-15T19:08:39.386Z,101269.19
2024-02-15T19:11:07.266Z,101270.09
2024-02-15T19:13:35.096Z,101273.50
2024-02-15T19:16:03.049Z,101278.66
2024-02-15T19:18:32.825Z,101278.75
2024-02-15T19:21:00.721Z,101281.56
2024-02-15T19:23:28.357Z,101282.84
2024-02-15T19:25:56.492Z,101283.00
2024-02-15T19:28:27.532Z,101282.13
2024-02-15T19:30:55.139Z,101279.53
2024-02-15T19:33:24.583Z,101285.72
2024-02-15T19:35:54.462Z,101286.78
2024-02-15T19:38:27.219Z,101288.19
2024-02-15T19:40:55.641Z,101286.47
2024-02-15T19:43:25.012Z,101295.34
2024-02-15T19:45:52.924Z,101291.13
2024-02-15T19:48:21.033Z,101291.22
2024-02-15T19:50:49.269Z,101293.66
2024-02-15T19:53:21.355Z,101290.13
2024-02-15T19:55:51.796Z,101293.75
2024-02-15T19:58:19.302Z,101286.19
2024-02-15T20:00:49.352Z,101287.09
2024-02-15T20:03:18.076Z,101288.81
2024-02-15T20:05:45.790Z,101291.47
2024-02-15T20:08:15.533Z,101287.13
2024-02-15T20:10:43.346Z,101293.28
2024-02-15T20:13:11.888Z,101289.84
2024-02-15T20:15:39.529Z,101282.00
2024-02-15T20:18:07.834Z,101282.84
2024-02-15T20:20:37.982Z,101289.06
2024-02-15T20:23:23.208Z,101298.78
2024-02-15T20:25:51.024Z,101298.84
2024-02-15T20:28:21.777Z,101296.22
2024-02-15T20:30:49.612Z,101291.06
2024-02-15T20:33:20.481Z,101286.03
2024-02-15T20:35:48.187Z,101285.22
2024-02-15T20:38:17.026Z,101286.81
2024-02-15T20:40:45.539Z,101288.53
2024-02-15T20:43:13.001Z,101276.41
2024-02-15T20:45:58.252Z,101276.47
2024-02-15T20:48:26.734Z,101281.72
2024-02-15T20:50:54.576Z,101290.44
2024-02-15T20:53:22.371Z,101285.22
2024-02-15T20:55:52.749Z,101283.53
2024-02-15T20:58:20.202Z,101283.69
2024-02-15T21:00:47.823Z,101283.12
2024-02-15T21:03:18.262Z,101280.63
2024-02-15T21:05:45.802Z,101291.91
2024-02-15T21:08:13.742Z,101287.53
2024-02-15T21:10:42.108Z,101293.69
2024-02-15T21:13:09.726Z,101285.00
2024-02-15T21:15:38.246Z,101285.94
2024-02-15T21:18:06.158Z,101285.25
2024-02-15T21:20:33.898Z,101288.78
2024-02-15T21:23:06.088Z,101293.25
2024-02-15T21:25:34.229Z,101289.75
2024-02-15T21:28:01.803Z,101285.38
2024-02-15T21:30:31.841Z,101287.16
2024-02-15T21:32:59.929Z,101277.63
2024-02-15T21:35:28.374Z,101280.16
2024-02-15T21:37:56.355Z,101282.78
2024-02-15T21:40:24.153Z,101276.75
2024-02-15T21:42:53.208Z,101281.09
2024-02-15T21:45:20.705Z,101272.44
2024-02-15T21:47:53.990Z,101272.53
2024-02-15T21:50:21.598Z,101277.00
2024-02-15T21:52:49.432Z,101283.94
2024-02-15T21:55:16.966Z,101284.84
2024-02-15T21:57:44.921Z,101279.62
2024-02-15T22:00:12.861Z,101290.00
2024-02-15T22:02:40.625Z,101290.87
2024-02-15T22:05:10.823Z,101292.56
2024-02-15T22:07:41.034Z,101299.50
2024-02-15T22:10:10.643Z,101290.03
2024-02-15T22:12:38.815Z,101279.81
2024-02-15T22:15:09.365Z,101293.78
2024-02-15T22:17:37.596Z,101293.81
2024-02-15T22:20:15.500Z,101288.63
2024-02-15T22:22:44.563Z,101287.78
2024-02-15T22:25:12.269Z,101289.47
2024-02-15T22:27:39.687Z,101284.28
2024-02-15T22:30:08.356Z,101294.66
2024-02-15T22:32:35.873Z,101286.16
2024-02-15T22:35:04.134Z,101289.62
2024-02-15T22:37:31.949Z,101289.62
2024-02-15T22:39:59.758Z,101285.31
2024-02-15T22:42:27.939Z,101286.19
2024-02-15T22:44:57.054Z,101284.47
2024-02-15T22:47:24.592Z,101281.81
2024-02-15T22:49:52.078Z,101281.00
2024-02-15T22:52:20.669Z,101275.75
2024-02-15T22:54:50.007Z,101282.72
2024-02-15T22:57:17.699Z,101279.22
2024-02-15T22:59:46.252Z,101275.81
2024-02-15T23:02:17.909Z,101278.41
2024-02-15T23:04:46.322Z,101282.78
2024-02-15T23:07:13.941Z,101281.03
2024-02-15T23:09:41.432Z,101285.38
2024-02-15T23:12:09.410Z,101281.91
2024-02-15T23:14:36.940Z,101281.97
2024-02-15T23:17:04.470Z,101286.28
2024-02-15T23:19:33.334Z,101282.84
2024-02-15T23:22:00.981Z,101289.75
2024-02-15T23:24:28.472Z,101287.13
2024-02-15T23:26:58.916Z,101285.44
2024-02-15T23:29:27.413Z,101290.66
2024-02-15T23:31:54.870Z,101284.56
2024-02-15T23:34:25.763Z,101279.38
2024-02-15T23:37:11.652Z,101279.34
2024-02-15T23:39:57.939Z,101278.44
2024-02-15T23:42:26.589Z,101281.91
2024-02-15T23:44:54.841Z,101281.03
2024-02-15T23:47:25.526Z,101284.53
2024-02-15T23:49:53.134Z,101284.53
2024-02-15T23:52:21.157Z,101276.78
2024-02-15T23:54:50.981Z,101275.06
2024-02-15T23:57:21.741Z,101269.91
2024-02-15T23:59:52.127Z,101273.38
